Terminal Aerodrome Forecast
Issued by NWS Topeka, KS

Home | Current Version | Previous Version | Text Only | Print | Product List | Glossary Off
Versions: 1 2 3 4 5 6 7 8 9 10 11 12 13 14 15 16 17 18 19 20 21

000
FTUS43 KTOP 251100
TAFTOP
TAF
KTOP 251120Z 2512/2612 21006KT 5SM -TSRA SCT019 BKN050CB
     FM251300 18012KT P6SM VCSH SCT012 BKN050
     FM251800 18014G24KT P6SM SCT050
     FM260200 17012KT P6SM VCTS SCT040CB BKN250=

USA.gov is the U.S. government's official web portal to all federal, state and local government web resources and services.